createdAt,value
2022-08-18T00:00:00.899Z,61.40
2022-08-18T00:02:30.709Z,61.40
2022-08-18T00:04:58.333Z,61.40
2022-08-18T00:07:31.634Z,61.40
2022-08-18T00:10:00.203Z,61.40
2022-08-18T00:12:43.237Z,61.40
2022-08-18T00:15:14.329Z,61.40
2022-08-18T00:17:41.693Z,61.40
2022-08-18T00:20:13.260Z,61.40
2022-08-18T00:22:40.446Z,61.40
2022-08-18T00:25:10.629Z,61.40
2022-08-18T00:27:39.674Z,61.40
2022-08-18T00:30:12.385Z,61.30
2022-08-18T00:32:42.531Z,61.40
2022-08-18T00:35:15.582Z,61.30
2022-08-18T00:37:43.211Z,61.20
2022-08-18T00:40:13.759Z,61.20
2022-08-18T00:42:48.876Z,61.20
2022-08-18T00:45:20.307Z,61.10
2022-08-18T00:47:47.779Z,61.10
2022-08-18T00:50:24.527Z,61.10
2022-08-18T00:53:05.222Z,61.00
2022-08-18T00:55:33.426Z,61.30
2022-08-18T00:58:08.759Z,61.00
2022-08-18T01:00:37.520Z,61.20
2022-08-18T01:03:12.225Z,61.00
2022-08-18T01:05:47.837Z,61.10
2022-08-18T01:08:16.836Z,61.10
2022-08-18T01:13:16.424Z,61.00
2022-08-18T01:15:44.663Z,61.00
2022-08-18T01:18:33.170Z,60.90
2022-08-18T01:21:34.711Z,60.90
2022-08-18T01:24:05.685Z,60.90
2022-08-18T01:26:37.527Z,60.80
2022-08-18T01:31:56.098Z,60.60
2022-08-18T01:34:27.487Z,60.60
2022-08-18T01:41:27.426Z,60.80
2022-08-18T01:42:13.833Z,60.50
2022-08-18T01:44:41.736Z,60.60
2022-08-18T01:47:12.004Z,60.60
2022-08-18T01:49:44.109Z,60.50
2022-08-18T01:52:19.483Z,60.60
2022-08-18T01:54:48.166Z,60.50
2022-08-18T01:57:18.829Z,60.50
2022-08-18T02:02:18.829Z,60.50
2022-08-18T02:12:18.420Z,60.00
2022-08-18T02:17:13.898Z,60.30
2022-08-18T02:19:45.624Z,59.90
2022-08-18T02:22:16.467Z,59.80
2022-08-18T02:24:44.018Z,59.80
2022-08-18T02:27:14.047Z,59.70
2022-08-18T02:29:41.303Z,59.70
2022-08-18T02:34:37.586Z,59.60
2022-08-18T02:39:34.623Z,59.50
2022-08-18T02:42:01.613Z,59.50
2022-08-18T02:44:29.716Z,59.40
2022-08-18T02:51:53.757Z,59.60
2022-08-18T02:54:23.169Z,59.30
2022-08-18T02:56:52.359Z,59.30
2022-08-18T02:59:24.650Z,59.30
2022-08-18T03:01:56.099Z,59.20
2022-08-18T03:04:29.618Z,59.20
2022-08-18T03:07:01.243Z,59.20
2022-08-18T03:09:29.625Z,59.20
2022-08-18T03:16:53.369Z,59.20
2022-08-18T03:19:29.284Z,59.10
2022-08-18T03:22:02.804Z,59.20
2022-08-18T03:24:32.173Z,59.20
2022-08-18T03:26:59.906Z,59.10
2022-08-18T03:32:02.410Z,59.10
2022-08-18T03:36:57.098Z,59.10
2022-08-18T03:39:25.023Z,59.00
2022-08-18T03:42:01.118Z,59.10
2022-08-18T03:44:32.026Z,59.00
2022-08-18T03:51:54.997Z,59.00
2022-08-18T03:59:21.314Z,58.90
2022-08-18T04:01:50.245Z,58.80
2022-08-18T04:04:21.033Z,58.80
2022-08-18T04:06:54.443Z,58.70
2022-08-18T04:14:21.949Z,58.70
2022-08-18T04:16:49.934Z,58.70
2022-08-18T04:26:51.794Z,58.60
2022-08-18T04:29:21.390Z,58.60
2022-08-18T04:31:50.300Z,58.60
2022-08-18T04:34:20.791Z,58.60
2022-08-18T04:41:44.196Z,59.00
2022-08-18T04:44:12.684Z,58.60
2022-08-18T04:46:49.503Z,58.60
2022-08-18T04:49:18.484Z,58.60
2022-08-18T04:52:34.361Z,58.60
2022-08-18T04:57:26.207Z,58.70
2022-08-18T05:07:22.657Z,58.70
2022-08-18T05:14:47.859Z,58.70
2022-08-18T05:17:16.367Z,58.70
2022-08-18T05:24:46.966Z,58.80
2022-08-18T05:29:46.091Z,58.80
2022-08-18T05:32:40.863Z,58.80
2022-08-18T05:35:09.331Z,58.80
2022-08-18T05:37:43.640Z,58.80
2022-08-18T05:40:11.760Z,58.80
2022-08-18T05:42:40.726Z,58.70
2022-08-18T05:45:15.487Z,61.50
2022-08-18T05:47:42.535Z,59.00
2022-08-18T05:50:18.033Z,59.40
2022-08-18T05:52:44.843Z,59.60
2022-08-18T05:55:58.378Z,60.00
2022-08-18T05:58:49.020Z,61.10
2022-08-18T06:01:42.525Z,61.40
2022-08-18T06:04:25.139Z,61.10
2022-08-18T06:06:53.820Z,61.40
2022-08-18T06:09:34.919Z,61.90
2022-08-18T06:12:21.149Z,62.60
2022-08-18T06:14:48.523Z,63.80
2022-08-18T06:17:40.162Z,62.70
2022-08-18T06:20:32.447Z,61.40
2022-08-18T06:23:09.697Z,61.80
2022-08-18T06:25:55.824Z,61.60
2022-08-18T06:28:22.736Z,61.40
2022-08-18T06:31:09.842Z,60.50
2022-08-18T06:33:51.461Z,60.30
2022-08-18T06:36:30.252Z,61.10
2022-08-18T06:39:19.480Z,60.30
2022-08-18T06:41:49.035Z,61.00
2022-08-18T06:44:46.787Z,61.10
2022-08-18T06:47:40.885Z,61.00
2022-08-18T06:50:28.259Z,61.00
2022-08-18T06:53:02.043Z,61.00
2022-08-18T06:55:58.507Z,61.30
2022-08-18T06:58:30.628Z,62.30
2022-08-18T07:01:01.815Z,62.80
2022-08-18T07:03:34.854Z,63.00
2022-08-18T07:06:21.362Z,62.60
2022-08-18T07:08:56.973Z,63.50
2022-08-18T07:11:29.872Z,62.90
2022-08-18T07:14:17.269Z,63.80
2022-08-18T07:17:00.277Z,63.00
2022-08-18T07:19:32.020Z,62.90
2022-08-18T07:22:06.860Z,64.00
2022-08-18T07:24:39.996Z,63.80
2022-08-18T07:27:17.282Z,64.00
2022-08-18T07:30:15.160Z,64.00
2022-08-18T07:33:00.070Z,64.00
2022-08-18T07:35:40.367Z,64.20
2022-08-18T07:38:42.539Z,63.70
2022-08-18T07:41:26.003Z,64.50
2022-08-18T07:43:55.786Z,64.50
2022-08-18T07:46:38.798Z,64.60
2022-08-18T07:49:07.036Z,64.60
2022-08-18T07:51:37.063Z,64.90
2022-08-18T07:54:20.275Z,64.00
2022-08-18T07:57:26.764Z,64.80
2022-08-18T08:00:03.002Z,64.80
2022-08-18T08:02:54.938Z,64.90
2022-08-18T08:05:57.561Z,64.90
2022-08-18T08:08:40.002Z,64.80
2022-08-18T08:11:27.569Z,64.10
2022-08-18T08:14:13.898Z,64.70
2022-08-18T08:16:50.950Z,64.70
2022-08-18T08:19:36.523Z,64.80
2022-08-18T08:22:19.371Z,63.80
2022-08-18T08:24:51.545Z,64.70
2022-08-18T08:27:50.971Z,66.60
2022-08-18T08:30:20.941Z,64.60
2022-08-18T08:33:03.419Z,64.00
2022-08-18T08:35:49.459Z,65.40
2022-08-18T08:38:42.289Z,64.80
2022-08-18T08:41:32.559Z,65.00
2022-08-18T08:44:17.866Z,65.00
2022-08-18T08:46:50.672Z,64.90
2022-08-18T08:49:40.991Z,65.10
2022-08-18T08:52:31.124Z,65.20
2022-08-18T08:55:11.718Z,65.10
2022-08-18T08:57:53.874Z,65.20
2022-08-18T09:00:21.411Z,65.30
2022-08-18T09:02:53.944Z,64.50
2022-08-18T09:05:39.950Z,65.10
2022-08-18T09:08:36.531Z,65.20
2022-08-18T09:11:29.673Z,65.10
2022-08-18T09:14:26.897Z,64.50
2022-08-18T09:16:56.640Z,65.20
2022-08-18T09:19:39.259Z,65.40
2022-08-18T09:22:55.307Z,64.40
2022-08-18T09:25:43.303Z,65.20
2022-08-18T09:28:12.983Z,66.60
2022-08-18T09:30:42.614Z,65.30
2022-08-18T09:33:46.671Z,64.50
2022-08-18T09:36:28.477Z,65.20
2022-08-18T09:39:47.054Z,65.30
2022-08-18T09:42:30.162Z,65.10
2022-08-18T09:45:01.982Z,65.30
2022-08-18T09:47:30.310Z,66.60
2022-08-18T09:50:27.025Z,66.10
2022-08-18T09:53:53.230Z,65.10
2022-08-18T09:56:54.134Z,65.00
2022-08-18T09:59:38.052Z,65.00
2022-08-18T10:02:06.494Z,64.20
2022-08-18T10:04:51.084Z,64.30
2022-08-18T10:07:21.046Z,65.00
2022-08-18T10:09:47.792Z,64.10
2022-08-18T10:12:53.778Z,66.50
2022-08-18T10:16:15.690Z,64.90
2022-08-18T10:19:07.958Z,64.80
2022-08-18T10:21:58.168Z,65.00
2022-08-18T10:24:39.766Z,64.70
2022-08-18T10:27:46.735Z,64.70
2022-08-18T10:34:01.311Z,63.90
2022-08-18T10:36:51.617Z,64.60
2022-08-18T10:39:42.627Z,64.60
2022-08-18T10:42:22.487Z,64.90
2022-08-18T10:44:55.365Z,64.50
2022-08-18T10:47:33.500Z,66.60
2022-08-18T10:50:06.837Z,64.50
2022-08-18T10:52:46.198Z,64.40
2022-08-18T10:55:27.026Z,64.30
2022-08-18T10:58:28.333Z,64.80
2022-08-18T11:01:07.295Z,64.10
2022-08-18T11:03:55.967Z,64.10
2022-08-18T11:06:25.744Z,64.00
2022-08-18T11:08:59.877Z,64.30
2022-08-18T11:11:38.779Z,63.20
2022-08-18T11:14:41.857Z,63.90
2022-08-18T11:17:22.851Z,63.10
2022-08-18T11:19:52.453Z,63.80
2022-08-18T11:22:31.614Z,63.10
2022-08-18T11:25:03.275Z,63.70
2022-08-18T11:27:35.607Z,63.90
2022-08-18T11:30:05.527Z,64.00
2022-08-18T11:32:42.688Z,63.00
2022-08-18T11:35:23.440Z,62.90
2022-08-18T11:37:59.849Z,62.90
2022-08-18T11:43:41.067Z,63.60
2022-08-18T11:46:39.313Z,62.90
2022-08-18T11:49:33.609Z,63.60
2022-08-18T11:52:15.093Z,63.60
2022-08-18T11:54:54.313Z,63.70
2022-08-18T11:57:49.265Z,64.00
2022-08-18T12:00:54.589Z,63.50
2022-08-18T12:03:31.656Z,63.50
2022-08-18T12:06:21.168Z,63.70
2022-08-18T12:08:57.949Z,63.70
2022-08-18T12:11:36.024Z,62.80
2022-08-18T12:17:08.051Z,63.40
2022-08-18T12:19:35.164Z,63.50
2022-08-18T12:22:12.498Z,62.50
2022-08-18T12:24:40.069Z,63.20
2022-08-18T12:27:20.411Z,62.20
2022-08-18T12:29:50.619Z,65.20
2022-08-18T12:32:41.375Z,62.90
2022-08-18T12:35:09.725Z,62.10
2022-08-18T12:40:26.564Z,61.80
2022-08-18T12:42:55.749Z,62.80
2022-08-18T12:45:23.550Z,62.70
2022-08-18T12:47:52.695Z,62.70
2022-08-18T12:50:20.043Z,62.50
2022-08-18T12:52:58.199Z,62.70
2022-08-18T12:55:26.127Z,62.80
2022-08-18T12:57:53.903Z,62.50
2022-08-18T13:00:27.903Z,62.70
2022-08-18T13:02:56.631Z,62.40
2022-08-18T13:05:27.667Z,62.10
2022-08-18T13:08:00.262Z,62.10
2022-08-18T13:10:45.772Z,62.00
2022-08-18T13:13:15.681Z,62.00
2022-08-18T13:15:44.381Z,61.60
2022-08-18T13:18:27.265Z,61.90
2022-08-18T13:20:58.295Z,61.90
2022-08-18T13:23:27.688Z,61.70
2022-08-18T13:25:59.347Z,61.70
2022-08-18T13:28:35.770Z,60.90
2022-08-18T13:31:06.648Z,61.60
2022-08-18T13:33:57.251Z,61.60
2022-08-18T13:36:22.357Z,61.60
2022-08-18T13:38:52.357Z,61.50
2022-08-18T13:43:52.229Z,61.30
2022-08-18T13:46:29.795Z,60.40
2022-08-18T13:49:02.140Z,61.10
2022-08-18T13:51:30.487Z,61.40
2022-08-18T13:54:17.965Z,60.90
2022-08-18T13:56:51.843Z,61.20
2022-08-18T13:59:21.681Z,61.10
2022-08-18T14:01:53.036Z,60.90
2022-08-18T14:04:22.786Z,60.00
2022-08-18T14:06:56.921Z,60.60
2022-08-18T14:09:36.673Z,60.00
2022-08-18T14:12:23.359Z,60.80
2022-08-18T14:14:55.695Z,60.70
2022-08-18T14:17:24.997Z,60.90
2022-08-18T14:20:15.310Z,60.80
2022-08-18T14:23:13.188Z,63.30
2022-08-18T14:26:00.010Z,61.60
2022-08-18T14:28:28.282Z,60.80
2022-08-18T14:30:56.996Z,60.90
2022-08-18T14:33:34.106Z,61.00
2022-08-18T14:36:14.208Z,61.20
2022-08-18T14:38:41.894Z,63.20
2022-08-18T14:41:13.167Z,61.50
2022-08-18T14:44:04.496Z,61.70
2022-08-18T14:46:30.568Z,62.00
2022-08-18T14:49:00.189Z,62.20
2022-08-18T14:51:31.795Z,62.60
2022-08-18T14:54:01.162Z,62.60
2022-08-18T14:56:29.403Z,63.00
2022-08-18T14:58:56.612Z,62.90
2022-08-18T15:01:24.687Z,61.90
2022-08-18T15:03:54.386Z,62.90
2022-08-18T15:06:22.881Z,62.90
2022-08-18T15:08:55.029Z,62.00
2022-08-18T15:11:24.868Z,62.00
2022-08-18T15:13:55.153Z,62.80
2022-08-18T15:16:31.579Z,62.90
2022-08-18T15:19:00.280Z,63.30
2022-08-18T15:21:49.315Z,62.90
2022-08-18T15:24:37.563Z,62.90
2022-08-18T15:27:10.287Z,63.00
2022-08-18T15:29:46.292Z,63.30
2022-08-18T15:32:15.206Z,63.00
2022-08-18T15:34:47.256Z,62.10
2022-08-18T15:37:24.015Z,63.10
2022-08-18T15:40:30.201Z,62.80
2022-08-18T15:43:01.471Z,62.60
2022-08-18T15:45:37.657Z,62.60
2022-08-18T15:48:12.519Z,64.70
2022-08-18T15:50:39.515Z,62.50
2022-08-18T15:53:10.939Z,61.60
2022-08-18T15:55:39.600Z,61.50
2022-08-18T15:58:11.097Z,62.40
2022-08-18T16:00:45.520Z,62.40
2022-08-18T16:03:14.518Z,62.20
2022-08-18T16:05:53.330Z,62.20
2022-08-18T16:08:25.191Z,62.20
2022-08-18T16:10:53.503Z,62.30
2022-08-18T16:13:21.299Z,62.20
2022-08-18T16:15:50.127Z,62.00
2022-08-18T16:18:18.507Z,63.00
2022-08-18T16:20:45.396Z,61.20
2022-08-18T16:23:13.201Z,62.30
2022-08-18T16:25:42.037Z,62.00
2022-08-18T16:30:36.727Z,61.20
2022-08-18T16:33:06.501Z,61.10
2022-08-18T16:35:35.071Z,62.00
2022-08-18T16:38:08.637Z,62.00
2022-08-18T16:40:36.113Z,61.90
2022-08-18T16:43:03.884Z,62.00
2022-08-18T16:45:32.918Z,63.80
2022-08-18T16:48:00.529Z,63.40
2022-08-18T16:50:28.022Z,62.30
2022-08-18T16:52:55.443Z,62.20
2022-08-18T16:55:22.237Z,62.00
2022-08-18T16:58:07.847Z,61.10
2022-08-18T17:01:18.760Z,62.00
2022-08-18T17:04:14.715Z,61.10
2022-08-18T17:06:48.038Z,62.10
2022-08-18T17:09:16.003Z,61.10
2022-08-18T17:11:51.390Z,62.00
2022-08-18T17:14:24.342Z,62.00
2022-08-18T17:16:55.963Z,61.90
2022-08-18T17:19:26.095Z,61.90
2022-08-18T17:21:53.665Z,61.80
2022-08-18T17:24:31.044Z,64.20
2022-08-18T17:27:26.595Z,62.10
2022-08-18T17:29:57.345Z,61.00
2022-08-18T17:35:33.239Z,61.70
2022-08-18T17:38:16.614Z,61.90
2022-08-18T17:40:47.888Z,61.60
2022-08-18T17:43:20.846Z,61.90
2022-08-18T17:45:54.405Z,61.80
2022-08-18T17:48:35.115Z,61.80
2022-08-18T17:51:37.610Z,61.60
2022-08-18T17:54:38.092Z,60.80
2022-08-18T17:57:14.643Z,61.60
2022-08-18T17:59:51.959Z,61.60
2022-08-18T18:02:30.580Z,61.50
2022-08-18T18:05:04.008Z,61.50
2022-08-18T18:07:51.761Z,61.50
2022-08-18T18:13:33.211Z,61.50
2022-08-18T18:16:27.393Z,61.50
2022-08-18T18:19:07.251Z,61.20
2022-08-18T18:21:56.564Z,61.20
2022-08-18T18:24:33.047Z,61.30
2022-08-18T18:27:00.415Z,61.40
2022-08-18T18:29:37.698Z,61.30
2022-08-18T18:32:32.002Z,61.50
2022-08-18T18:35:06.907Z,61.20
2022-08-18T18:37:47.292Z,61.20
2022-08-18T18:40:37.023Z,61.30
2022-08-18T18:43:21.828Z,61.10
2022-08-18T18:46:18.996Z,61.40
2022-08-18T18:49:20.258Z,61.10
2022-08-18T18:52:12.020Z,61.10
2022-08-18T18:55:02.394Z,61.10
2022-08-18T18:58:03.031Z,61.10
2022-08-18T19:00:53.699Z,60.30
2022-08-18T19:03:46.421Z,61.10
2022-08-18T19:06:31.878Z,60.30
2022-08-18T19:09:13.817Z,61.10
2022-08-18T19:11:57.774Z,60.30
2022-08-18T19:14:30.206Z,61.30
2022-08-18T19:17:19.876Z,61.10
2022-08-18T19:19:49.430Z,61.00
2022-08-18T19:22:22.397Z,60.30
2022-08-18T19:25:13.090Z,61.40
2022-08-18T19:28:06.982Z,61.00
2022-08-18T19:30:37.351Z,61.00
2022-08-18T19:33:05.763Z,61.20
2022-08-18T19:35:50.111Z,61.20
2022-08-18T19:38:35.215Z,61.10
2022-08-18T19:41:19.903Z,61.20
2022-08-18T19:44:03.356Z,61.20
2022-08-18T19:47:02.331Z,61.10
2022-08-18T19:49:46.974Z,61.10
2022-08-18T19:52:45.882Z,61.30
2022-08-18T19:55:28.131Z,61.20
2022-08-18T19:58:19.554Z,61.20
2022-08-18T20:01:20.781Z,61.20
2022-08-18T20:04:11.878Z,61.60
2022-08-18T20:06:56.591Z,61.40
2022-08-18T20:09:48.034Z,61.50
2022-08-18T20:12:37.439Z,61.10
2022-08-18T20:15:23.109Z,61.50
2022-08-18T20:18:19.511Z,61.40
2022-08-18T20:21:15.427Z,61.50
2022-08-18T20:24:13.159Z,61.50
2022-08-18T20:26:39.916Z,61.50
2022-08-18T20:29:09.353Z,60.80
2022-08-18T20:31:59.658Z,61.60
2022-08-18T20:34:31.930Z,61.60
2022-08-18T20:37:01.459Z,61.70
2022-08-18T20:39:54.543Z,61.60
2022-08-18T20:42:21.454Z,61.70
2022-08-18T20:44:48.117Z,60.90
2022-08-18T20:47:56.390Z,60.90
2022-08-18T20:50:59.196Z,61.80
2022-08-18T20:54:03.290Z,61.90
2022-08-18T20:56:46.357Z,61.10
2022-08-18T20:59:20.172Z,62.00
2022-08-18T21:02:08.185Z,62.00
2022-08-18T21:04:38.118Z,62.00
2022-08-18T21:07:43.302Z,62.20
2022-08-18T21:10:20.330Z,62.10
2022-08-18T21:13:00.550Z,62.20
2022-08-18T21:15:30.833Z,62.20
2022-08-18T21:18:16.344Z,62.20
2022-08-18T21:20:43.373Z,62.10
2022-08-18T21:23:13.664Z,61.40
2022-08-18T21:25:50.886Z,62.20
2022-08-18T21:28:18.355Z,62.10
2022-08-18T21:31:42.838Z,62.20
2022-08-18T21:34:33.230Z,62.10
2022-08-18T21:37:06.298Z,62.10
2022-08-18T21:39:34.360Z,62.00
2022-08-18T21:42:01.555Z,61.20
2022-08-18T21:44:45.577Z,61.90
2022-08-18T21:47:20.047Z,61.90
2022-08-18T21:50:10.666Z,62.00
2022-08-18T21:52:52.003Z,61.70
2022-08-18T21:55:26.729Z,61.70
2022-08-18T21:58:04.320Z,61.80
2022-08-18T22:00:40.042Z,61.50
2022-08-18T22:03:16.027Z,60.90
2022-08-18T22:05:58.020Z,62.50
2022-08-18T22:08:33.073Z,61.40
2022-08-18T22:12:00.537Z,61.20
2022-08-18T22:14:35.917Z,60.90
2022-08-18T22:17:53.684Z,61.30
2022-08-18T22:20:44.719Z,61.00
2022-08-18T22:23:33.088Z,60.20
2022-08-18T22:26:10.891Z,60.90
2022-08-18T22:28:46.441Z,61.00
2022-08-18T22:31:18.153Z,60.80
2022-08-18T22:33:48.306Z,60.00
2022-08-18T22:36:18.930Z,60.00
2022-08-18T22:38:46.759Z,60.70
2022-08-18T22:43:41.234Z,59.80
2022-08-18T22:46:08.007Z,59.80
2022-08-18T22:48:35.044Z,59.70
2022-08-18T22:53:29.802Z,59.60
2022-08-18T22:55:59.366Z,59.60
2022-08-18T22:58:32.995Z,60.50
2022-08-18T23:01:05.455Z,60.40
2022-08-18T23:03:41.569Z,59.50
2022-08-18T23:06:09.838Z,60.20
2022-08-18T23:08:54.561Z,60.20
2022-08-18T23:11:24.358Z,59.40
2022-08-18T23:13:51.580Z,60.10
2022-08-18T23:16:31.899Z,59.30
2022-08-18T23:19:03.466Z,60.20
2022-08-18T23:21:34.535Z,60.00
2022-08-18T23:24:05.823Z,59.90
2022-08-18T23:26:33.926Z,59.90
2022-08-18T23:29:01.800Z,59.30
2022-08-18T23:31:30.042Z,59.90
2022-08-18T23:33:58.802Z,60.00
2022-08-18T23:36:25.750Z,59.90
2022-08-18T23:38:53.970Z,59.20
2022-08-18T23:41:21.617Z,59.20
2022-08-18T23:43:50.735Z,59.10
2022-08-18T23:46:23.130Z,59.80
2022-08-18T23:48:51.592Z,61.00
2022-08-18T23:51:39.425Z,59.80
2022-08-18T23:54:12.946Z,59.70
2022-08-18T23:56:40.274Z,59.80
2022-08-18T23:59:08.314Z,59.70
